Time;durP1;ratioP1;P1;durP2;ratioP2;P2;SDS_P1;SDS_P2;PMS_P1;PMS_P2;Temp;Humidity;BMP_temperature;BMP_pressure;BME280_temperature;BME280_humidity;BME280_pressure;Samples;Min_cycle;Max_cycle;Signal;HPM_P1;HPM_P2
2023/10/20 05:36:44;;;;;;;15.80;7.40;;;;;;;16.56;55.70;96256.89;104619;1273;61920;-43
2023/10/20 05:39:43;;;;;;;12.90;7.90;;;;;;;16.57;55.97;96263.06;103802;1277;61278;-44
2023/10/20 05:42:09;;;;;;;8.90;6.50;;;;;;;16.58;56.08;96260.15;103724;1281;74610;-45
2023/10/20 05:45:13;;;;;;;11.60;7.50;;;;;;;16.62;56.22;96260.27;103989;1277;66266;-43
2023/10/20 05:47:39;;;;;;;15.60;7.90;;;;;;;16.64;56.67;96254.57;103812;1281;72564;-44
2023/10/20 05:50:07;;;;;;;8.30;7.20;;;;;;;16.64;56.80;96258.21;103466;1281;61167;-48
2023/10/20 05:52:35;;;;;;;11.90;7.00;;;;;;;16.66;56.73;96254.83;103364;1284;61342;-44
2023/10/20 05:55:03;;;;;;;11.10;8.20;;;;;;;16.70;56.98;96250.23;103737;1280;74071;-44
2023/10/20 05:57:30;;;;;;;23.70;17.10;;;;;;;16.73;57.15;96243.85;105005;1281;65694;-46
2023/10/20 05:59:59;;;;;;;19.30;15.80;;;;;;;16.76;57.16;96245.11;103799;1277;72712;-42
2023/10/20 06:02:28;;;;;;;16.90;12.40;;;;;;;16.79;57.28;96240.59;103577;1282;61250;-46
2023/10/20 06:04:57;;;;;;;18.20;12.80;;;;;;;16.82;57.01;96239.84;103694;1277;61306;-41
2023/10/20 06:07:27;;;;;;;14.90;11.20;;;;;;;16.84;57.46;96246.98;103562;1277;76353;-44
2023/10/20 06:09:54;;;;;;;13.70;10.20;;;;;;;16.85;57.65;96248.45;104086;1282;65228;-38
2023/10/20 06:12:22;;;;;;;11.20;7.90;;;;;;;16.86;57.62;96254.17;103593;1284;73403;-40
2023/10/20 06:14:51;;;;;;;9.20;7.60;;;;;;;16.86;57.42;96255.95;103788;1282;61189;-43
2023/10/20 06:17:18;;;;;;;7.10;6.40;;;;;;;16.86;57.14;96258.19;103513;1277;61320;-44
2023/10/20 06:19:48;;;;;;;10.90;8.50;;;;;;;16.86;57.14;96260.28;103735;1282;75272;-43
2023/10/20 06:22:15;;;;;;;11.20;8.80;;;;;;;16.87;57.23;96260.83;103493;1278;66060;-45
2023/10/20 06:24:41;;;;;;;11.00;8.80;;;;;;;16.87;57.19;96260.20;103854;1277;72529;-40
2023/10/20 06:27:08;;;;;;;8.90;7.90;;;;;;;16.85;57.11;96254.95;103722;1281;61304;-44
2023/10/20 06:29:54;;;;;;;9.60;8.60;;;;;;;16.85;57.33;96261.36;103648;1277;61314;-39
2023/10/20 06:32:31;;;;;;;10.30;7.90;;;;;;;16.85;57.33;96261.81;103725;1277;73962;-42
2023/10/20 06:35:00;;;;;;;19.80;8.00;;;;;;;16.84;57.24;96272.24;103549;1282;66301;-40
2023/10/20 06:38:17;;;;;;;14.60;7.40;;;;;;;16.83;56.98;96283.18;103539;1277;73399;-38
2023/10/20 06:40:17;;;;;;;11.40;6.90;;;;;;;16.82;56.94;96283.80;103365;1283;61522;-38
2023/10/20 06:42:45;;;;;;;12.20;7.50;;;;;;;16.83;56.53;96282.34;103488;1277;61326;-40
2023/10/20 06:45:11;;;;;;;10.40;7.30;;;;;;;16.83;56.51;96279.56;103570;1283;74549;-41
2023/10/20 06:47:43;;;;;;;9.80;6.70;;;;;;;16.82;56.46;96271.91;103751;1282;66156;-41
2023/10/20 06:50:12;;;;;;;10.60;6.50;;;;;;;16.82;56.50;96272.91;103454;1279;72536;-42
2023/10/20 06:52:39;;;;;;;18.60;7.50;;;;;;;16.82;56.39;96274.77;103682;1282;61311;-42
2023/10/20 06:55:07;;;;;;;13.60;6.70;;;;;;;16.83;56.37;96268.90;103452;1277;61509;-42
2023/10/20 06:57:54;;;;;;;17.70;6.70;;;;;;;16.83;56.10;96271.15;103594;1278;73753;-43
2023/10/20 07:00:24;;;;;;;13.30;7.00;;;;;;;16.83;55.97;96274.70;103661;1279;65646;-40
2023/10/20 07:02:51;;;;;;;12.20;6.90;;;;;;;16.83;55.97;96279.09;103741;1281;72601;-42
2023/10/20 07:05:20;;;;;;;13.90;7.10;;;;;;;16.82;55.86;96281.17;103586;1283;61321;-39
2023/10/20 07:07:47;;;;;;;10.70;6.90;;;;;;;16.81;55.85;96279.86;103774;1277;61387;-41
2023/10/20 07:10:13;;;;;;;13.00;6.60;;;;;;;16.80;55.79;96282.84;103740;1277;74707;-41
2023/10/20 07:12:40;;;;;;;13.50;6.70;;;;;;;16.80;55.84;96288.94;103824;1281;64606;-43
2023/10/20 07:15:08;;;;;;;8.10;6.30;;;;;;;16.79;55.86;96286.25;103555;1277;72561;-40
2023/10/20 07:17:46;;;;;;;11.00;7.00;;;;;;;16.79;55.82;96288.02;103816;1282;61371;-41
2023/10/20 07:20:18;;;;;;;12.00;6.60;;;;;;;16.77;55.72;96285.77;104081;1282;61378;-40
2023/10/20 07:22:46;;;;;;;8.20;6.60;;;;;;;16.78;55.79;96277.73;103998;1277;74599;-40
2023/10/20 07:25:13;;;;;;;16.30;6.70;;;;;;;16.77;55.72;96275.72;103861;1280;65157;-42
2023/10/20 07:27:40;;;;;;;11.30;6.40;;;;;;;16.78;55.58;96274.72;103694;1282;71454;-38
2023/10/20 07:30:10;;;;;;;10.70;6.50;;;;;;;16.78;55.69;96271.40;103509;1282;61470;-41
2023/10/20 07:32:37;;;;;;;8.20;6.40;;;;;;;16.78;55.87;96263.59;107179;1276;59558;-39
2023/10/20 07:35:06;;;;;;;8.70;6.20;;;;;;;16.79;55.97;96267.55;105035;1277;74474;-41
2023/10/20 07:37:34;;;;;;;8.80;6.20;;;;;;;16.79;55.94;96263.86;105714;1277;66350;-42
2023/10/20 07:40:01;;;;;;;9.30;6.20;;;;;;;16.80;55.92;96270.17;103654;1277;73114;-40
2023/10/20 07:42:28;;;;;;;12.00;6.50;;;;;;;16.80;55.85;96275.73;103953;1282;61276;-40
2023/10/20 07:44:55;;;;;;;8.80;6.00;;;;;;;16.81;55.81;96279.38;103809;1277;61376;-39
2023/10/20 07:47:22;;;;;;;11.80;6.60;;;;;;;16.81;55.81;96277.69;103507;1277;74711;-43
2023/10/20 07:49:48;;;;;;;11.40;6.70;;;;;;;16.82;55.72;96281.02;103599;1283;64905;-41
2023/10/20 07:52:15;;;;;;;11.40;6.90;;;;;;;16.85;56.06;96283.53;103703;1277;74330;-40
2023/10/20 07:54:44;;;;;;;10.70;6.90;;;;;;;16.90;56.41;96289.06;103757;1282;61368;-42
2023/10/20 07:57:13;;;;;;;9.10;6.30;;;;;;;16.94;56.89;96292.73;103745;1276;61358;-42
2023/10/20 07:59:39;;;;;;;9.00;6.90;;;;;;;16.97;57.04;96300.25;103771;1277;75275;-41
2023/10/20 08:02:06;;;;;;;9.60;6.90;;;;;;;17.00;57.25;96298.20;103886;1277;67549;-41
2023/10/20 08:04:33;;;;;;;9.50;6.70;;;;;;;17.00;57.05;96298.98;103799;1277;73474;-43
2023/10/20 08:07:00;;;;;;;10.40;6.60;;;;;;;17.01;56.47;96308.27;103910;1282;61412;-39
2023/10/20 08:09:28;;;;;;;10.20;6.80;;;;;;;17.01;56.27;96305.92;103505;1276;61304;-42
2023/10/20 08:11:57;;;;;;;8.80;6.60;;;;;;;16.99;56.17;96311.17;103875;1277;75703;-41
2023/10/20 08:14:27;;;;;;;10.40;6.90;;;;;;;16.99;56.02;96308.77;103768;1283;67155;-43
2023/10/20 08:16:54;;;;;;;10.10;6.70;;;;;;;16.98;56.00;96304.52;104647;1277;73650;-39
2023/10/20 08:19:23;;;;;;;8.90;6.60;;;;;;;16.97;56.05;96304.67;103941;1280;61244;-41
2023/10/20 08:21:50;;;;;;;9.70;7.00;;;;;;;16.97;56.13;96318.89;103942;1277;61386;-42
2023/10/20 08:24:16;;;;;;;10.50;6.90;;;;;;;16.97;56.20;96326.91;103907;1277;75709;-42
2023/10/20 08:26:43;;;;;;;9.90;6.20;;;;;;;16.96;56.33;96324.58;103873;1280;66307;-39
2023/10/20 08:29:11;;;;;;;9.90;6.30;;;;;;;16.96;56.35;96317.16;103747;1277;73720;-41
2023/10/20 08:31:39;;;;;;;11.60;7.00;;;;;;;16.95;56.46;96314.85;103607;1282;61292;-41
2023/10/20 08:34:06;;;;;;;11.00;7.00;;;;;;;16.96;56.77;96327.35;103458;1277;61415;-43
2023/10/20 08:36:35;;;;;;;10.60;7.00;;;;;;;16.98;57.36;96328.86;103867;1279;74974;-41
2023/10/20 08:39:12;;;;;;;9.70;7.00;;;;;;;17.00;57.06;96325.39;103770;1280;65708;-44
2023/10/20 08:41:42;;;;;;;10.90;6.90;;;;;;;17.02;57.11;96334.08;103918;1277;72488;-41
2023/10/20 08:44:10;;;;;;;6.90;6.20;;;;;;;17.05;57.02;96341.52;103930;1283;61293;-46
2023/10/20 08:46:39;;;;;;;10.70;7.10;;;;;;;17.06;57.07;96336.66;103765;1280;61261;-43
2023/10/20 08:49:05;;;;;;;11.50;6.50;;;;;;;17.07;57.71;96328.72;103558;1277;74603;-43
2023/10/20 08:51:32;;;;;;;9.70;7.10;;;;;;;17.09;58.15;96330.13;103187;1282;209356;-43
2023/10/20 08:53:58;;;;;;;9.80;6.30;;;;;;;17.10;58.66;96323.41;103363;1280;61412;-42
2023/10/20 08:56:25;;;;;;;10.30;6.90;;;;;;;17.13;59.03;96321.81;103555;1279;61160;-41
2023/10/20 08:58:52;;;;;;;10.80;6.10;;;;;;;17.15;59.48;96323.85;103511;1277;61764;-41
2023/10/20 09:01:19;;;;;;;8.40;6.20;;;;;;;17.18;59.85;96327.20;103477;1282;74331;-42
2023/10/20 09:03:52;;;;;;;13.50;5.90;;;;;;;17.21;60.05;96331.55;103619;1281;66099;-44
2023/10/20 09:06:19;;;;;;;7.80;5.90;;;;;;;17.24;60.22;96329.02;103673;1283;72701;-42
2023/10/20 09:08:49;;;;;;;9.30;6.10;;;;;;;17.26;60.28;96326.65;103890;1277;61339;-42
2023/10/20 09:11:18;;;;;;;8.40;5.90;;;;;;;17.28;60.33;96324.20;103723;1277;61386;-41
2023/10/20 09:13:45;;;;;;;10.80;6.00;;;;;;;17.30;60.47;96326.92;103634;1281;74561;-42
2023/10/20 09:16:14;;;;;;;9.60;6.30;;;;;;;17.32;60.69;96322.16;103784;1277;66118;-42
2023/10/20 09:18:50;;;;;;;7.80;5.60;;;;;;;17.35;60.72;96318.86;103489;1277;73459;-43
2023/10/20 09:21:21;;;;;;;7.60;5.40;;;;;;;17.36;60.57;96309.11;103728;1281;61293;-42
2023/10/20 09:23:58;;;;;;;8.30;6.10;;;;;;;17.37;60.36;96311.15;103787;1277;61335;-43
2023/10/20 09:26:31;;;;;;;10.70;6.20;;;;;;;17.39;60.16;96317.33;103865;1277;74905;-40
2023/10/20 09:28:58;;;;;;;7.30;6.10;;;;;;;17.40;60.07;96318.29;103760;1277;66591;-43
2023/10/20 09:31:27;;;;;;;7.70;5.60;;;;;;;17.40;59.91;96311.48;103745;1277;72595;-41
2023/10/20 09:33:54;;;;;;;9.30;5.90;;;;;;;17.41;59.89;96314.34;103675;1281;61282;-43
2023/10/20 09:36:24;;;;;;;8.90;5.30;;;;;;;17.42;60.01;96313.27;103645;1277;61283;-40
2023/10/20 09:38:55;;;;;;;7.70;5.40;;;;;;;17.43;59.92;96315.69;103509;1282;75707;-41
2023/10/20 09:41:23;;;;;;;11.40;5.70;;;;;;;17.45;59.86;96318.77;103834;1277;67217;-40
2023/10/20 09:43:54;;;;;;;6.90;5.60;;;;;;;17.46;59.61;96320.48;103564;1277;73759;-41
2023/10/20 09:46:55;;;;;;;6.60;5.60;;;;;;;17.47;59.64;96317.48;103628;1282;61224;-40
2023/10/20 09:49:25;;;;;;;7.70;5.30;;;;;;;17.47;59.78;96314.09;103646;1280;61383;-40
2023/10/20 09:51:54;;;;;;;7.10;5.80;;;;;;;17.48;59.65;96316.48;103742;1282;75659;-41
2023/10/20 09:54:25;;;;;;;10.80;5.70;;;;;;;17.49;59.55;96322.38;103638;1283;64826;-42
2023/10/20 09:56:52;;;;;;;6.80;5.70;;;;;;;17.49;59.53;96321.99;103719;1278;73683;-41
2023/10/20 09:59:20;;;;;;;7.70;5.70;;;;;;;17.50;59.45;96316.66;103473;1282;61383;-41
2023/10/20 10:01:47;;;;;;;8.80;5.10;;;;;;;17.51;59.17;96311.20;105489;1278;61259;-42
2023/10/20 10:04:13;;;;;;;8.40;6.10;;;;;;;17.52;58.95;96301.86;106753;1277;75454;-43
2023/10/20 10:06:42;;;;;;;10.00;5.50;;;;;;;17.51;58.72;96297.74;103670;1282;66275;-39
2023/10/20 10:09:15;;;;;;;8.30;5.90;;;;;;;17.52;58.39;96296.13;103902;1277;73391;-43
2023/10/20 10:11:44;;;;;;;7.20;5.30;;;;;;;17.52;58.26;96293.81;103883;1279;61297;-41
2023/10/20 10:14:21;;;;;;;9.20;6.10;;;;;;;17.51;58.37;96293.41;104877;1277;61332;-40
2023/10/20 10:16:53;;;;;;;7.40;5.60;;;;;;;17.50;58.31;96291.76;103790;1279;74643;-40
2023/10/20 10:19:21;;;;;;;8.00;6.00;;;;;;;17.48;58.28;96288.58;103742;1282;65938;-39
2023/10/20 10:21:49;;;;;;;8.50;6.00;;;;;;;17.47;58.20;96277.66;103793;1277;72054;-41
2023/10/20 10:24:18;;;;;;;8.50;6.00;;;;;;;17.47;58.09;96277.11;103684;1277;61476;-41
2023/10/20 10:26:46;;;;;;;8.10;5.80;;;;;;;17.46;58.08;96273.77;103746;1277;61300;-42
2023/10/20 10:29:14;;;;;;;8.80;5.80;;;;;;;17.45;57.98;96266.73;103569;1277;74610;-39
2023/10/20 10:31:42;;;;;;;7.40;6.00;;;;;;;17.43;57.92;96268.81;105861;1279;66112;-40
2023/10/20 10:34:25;;;;;;;6.60;5.50;;;;;;;17.42;57.87;96267.88;105061;1277;72467;-41
2023/10/20 10:36:52;;;;;;;7.70;5.40;;;;;;;17.42;57.84;96271.13;104425;1279;61305;-39
2023/10/20 10:39:23;;;;;;;8.20;5.20;;;;;;;17.41;57.79;96266.09;103703;1277;61282;-40
2023/10/20 10:41:52;;;;;;;8.00;5.70;;;;;;;17.40;57.68;96270.19;103652;1277;75209;-40
2023/10/20 10:44:21;;;;;;;8.00;5.40;;;;;;;17.40;57.49;96269.41;104014;1277;66527;-40
2023/10/20 10:46:48;;;;;;;6.30;4.70;;;;;;;17.39;57.51;96266.31;103929;1277;72631;-40
2023/10/20 10:49:15;;;;;;;8.30;5.60;;;;;;;17.38;57.46;96269.23;103661;1283;61308;-40
2023/10/20 10:51:47;;;;;;;6.90;5.30;;;;;;;17.37;57.47;96264.06;103681;1277;61383;-39
2023/10/20 10:54:17;;;;;;;7.00;5.00;;;;;;;17.36;57.40;96266.83;103692;1277;75215;-41
2023/10/20 10:56:44;;;;;;;6.90;5.20;;;;;;;17.35;57.28;96266.83;103581;1280;66842;-40
2023/10/20 10:59:12;;;;;;;5.90;5.10;;;;;;;17.34;57.24;96267.12;104335;1277;72421;-40
2023/10/20 11:01:41;;;;;;;7.40;5.50;;;;;;;17.33;57.33;96267.12;103481;1282;61476;-41
2023/10/20 11:04:10;;;;;;;5.90;4.60;;;;;;;17.33;57.38;96268.59;103691;1277;61304;-41
2023/10/20 11:06:38;;;;;;;7.80;5.30;;;;;;;17.33;57.67;96265.81;104045;1277;73353;-43
2023/10/20 11:09:08;;;;;;;8.10;4.80;;;;;;;17.34;57.81;96262.71;104374;1282;64878;-43
2023/10/20 11:11:39;;;;;;;7.40;4.70;;;;;;;17.35;57.84;96258.46;103933;1277;72813;-43
2023/10/20 11:14:06;;;;;;;6.60;5.20;;;;;;;17.36;58.07;96258.71;103779;1283;61279;-42
2023/10/20 11:16:36;;;;;;;8.40;5.10;;;;;;;17.37;58.25;96257.94;103878;1277;62277;-42
2023/10/20 11:19:04;;;;;;;7.40;4.90;;;;;;;17.39;58.43;96260.83;103747;1277;74702;-42
2023/10/20 11:21:44;;;;;;;7.30;5.10;;;;;;;17.41;58.64;96259.67;103732;1281;68140;-41
2023/10/20 11:24:11;;;;;;;6.20;5.10;;;;;;;17.44;58.90;96260.94;103954;1277;73441;-41
2023/10/20 11:26:38;;;;;;;7.60;5.10;;;;;;;17.46;59.06;96260.10;103743;1280;61351;-43
2023/10/20 11:29:08;;;;;;;7.30;4.90;;;;;;;17.48;59.09;96256.10;103528;1283;61317;-39
2023/10/20 11:31:35;;;;;;;6.90;4.90;;;;;;;17.50;59.11;96254.89;103780;1281;75750;-41
2023/10/20 11:34:02;;;;;;;7.40;4.60;;;;;;;17.53;59.27;96257.16;103700;1281;65076;-41
2023/10/20 11:36:29;;;;;;;7.30;4.50;;;;;;;17.54;59.26;96250.38;103750;1277;73397;-41
2023/10/20 11:38:55;;;;;;;7.50;5.00;;;;;;;17.56;59.24;96248.38;103636;1283;61205;-43
2023/10/20 11:41:22;;;;;;;6.10;4.00;;;;;;;17.58;59.21;96249.01;103740;1282;62056;-42
2023/10/20 11:43:49;;;;;;;6.40;4.50;;;;;;;17.60;59.30;96248.70;103746;1282;76163;-41
2023/10/20 11:46:16;;;;;;;6.20;4.70;;;;;;;17.60;59.11;96246.62;103761;1283;65472;-42
2023/10/20 11:48:42;;;;;;;5.30;4.70;;;;;;;17.61;59.16;96245.86;103721;1277;72706;-41
2023/10/20 11:51:09;;;;;;;7.10;4.60;;;;;;;17.62;59.12;96239.91;103466;1293;61221;-41
2023/10/20 11:53:40;;;;;;;7.40;5.00;;;;;;;17.63;59.12;96238.52;103841;1277;61308;-41
2023/10/20 11:56:07;;;;;;;7.60;4.60;;;;;;;17.63;59.08;96235.11;103737;1277;74494;-41
2023/10/20 11:58:33;;;;;;;10.10;5.00;;;;;;;17.64;59.05;96238.99;103868;1283;61568;-42
2023/10/20 12:01:00;;;;;;;5.90;4.40;;;;;;;17.64;59.05;96238.84;103732;1280;73478;-41
2023/10/20 12:03:27;;;;;;;5.60;4.30;;;;;;;17.65;58.98;96240.00;103651;1282;62749;-41
2023/10/20 12:05:55;;;;;;;7.00;4.80;;;;;;;17.65;58.93;96231.65;103709;1278;61445;-41
2023/10/20 12:08:23;;;;;;;7.50;4.60;;;;;;;17.66;58.93;96232.27;103705;1278;75581;-41
2023/10/20 12:10:50;;;;;;;5.50;4.20;;;;;;;17.67;58.84;96231.65;103440;1277;66645;-40
2023/10/20 12:13:18;;;;;;;6.00;4.50;;;;;;;17.68;58.63;96232.14;103666;1278;73743;-42
2023/10/20 12:15:44;;;;;;;5.10;4.40;;;;;;;17.68;58.33;96237.33;103616;1277;61291;-43
2023/10/20 12:18:11;;;;;;;5.80;4.90;;;;;;;17.68;58.38;96242.27;103612;1283;61463;-41
2023/10/20 12:20:38;;;;;;;8.20;4.90;;;;;;;17.68;58.12;96239.55;103787;1277;74811;-40
2023/10/20 12:23:05;;;;;;;5.30;4.70;;;;;;;17.67;58.20;96237.61;103777;1282;65073;-41
2023/10/20 12:25:32;;;;;;;7.80;4.70;;;;;;;17.66;58.10;96241.94;103769;1277;73340;-41
2023/10/20 12:28:00;;;;;;;15.40;5.30;;;;;;;17.65;58.07;96243.95;103752;1283;61273;-42
2023/10/20 12:30:27;;;;;;;61.60;8.50;;;;;;;17.64;58.01;96243.08;103716;1277;61441;-41
2023/10/20 12:32:54;;;;;;;23.80;7.10;;;;;;;17.64;57.78;96238.91;103728;1280;75577;-42
2023/10/20 12:35:21;;;;;;;23.10;5.60;;;;;;;17.64;57.61;96241.54;103474;1283;67280;-42
2023/10/20 12:37:48;;;;;;;16.20;6.00;;;;;;;17.63;57.41;96243.78;103721;1277;72691;-40
2023/10/20 12:40:15;;;;;;;14.70;6.10;;;;;;;17.63;57.39;96246.48;103565;1283;61364;-41
2023/10/20 12:42:43;;;;;;;14.00;5.90;;;;;;;17.62;57.54;96242.46;103700;1277;61288;-40
2023/10/20 12:45:10;;;;;;;11.20;5.80;;;;;;;17.63;57.81;96247.11;103647;1279;75081;-40
2023/10/20 12:47:37;;;;;;;16.20;5.70;;;;;;;17.63;57.94;96249.34;103731;1283;66850;-40
2023/10/20 12:50:06;;;;;;;18.00;5.80;;;;;;;17.64;58.12;96249.05;103784;1277;73088;-41
2023/10/20 12:52:33;;;;;;;15.70;5.40;;;;;;;17.65;58.23;96250.98;103880;1278;61239;-43
2023/10/20 12:55:00;;;;;;;17.90;5.50;;;;;;;17.66;58.35;96249.83;103653;1277;61314;-41
2023/10/20 12:57:26;;;;;;;10.80;5.00;;;;;;;17.68;58.27;96246.91;103678;1279;75665;-42
2023/10/20 12:59:53;;;;;;;15.00;5.60;;;;;;;17.68;58.26;96238.80;103669;1277;66124;-42
2023/10/20 13:02:20;;;;;;;9.90;5.00;;;;;;;17.68;58.28;96242.42;103872;1277;73667;-39
2023/10/20 13:04:47;;;;;;;10.00;5.30;;;;;;;17.69;58.10;96236.08;103749;1276;61189;-42
2023/10/20 13:07:13;;;;;;;11.30;5.50;;;;;;;17.69;58.17;96243.65;104004;1280;61319;-41
2023/10/20 13:09:41;;;;;;;12.40;5.10;;;;;;;17.68;58.15;96242.89;103819;1279;75591;-41
2023/10/20 13:12:08;;;;;;;7.00;5.00;;;;;;;17.67;58.11;96243.96;103735;1283;65436;-43
2023/10/20 13:14:36;;;;;;;8.50;5.30;;;;;;;17.66;58.12;96244.95;103811;1277;72526;-41
2023/10/20 13:17:04;;;;;;;10.90;4.90;;;;;;;17.65;58.01;96249.90;103784;1283;61269;-41
2023/10/20 13:19:32;;;;;;;8.40;4.50;;;;;;;17.64;58.06;96248.11;103874;1282;61611;-41
2023/10/20 13:22:00;;;;;;;10.30;5.20;;;;;;;17.63;57.91;96241.53;103789;1277;73436;-41
2023/10/20 13:24:27;;;;;;;8.20;5.20;;;;;;;17.61;57.83;96241.07;103789;1281;66376;-43
2023/10/20 13:26:53;;;;;;;8.80;5.10;;;;;;;17.60;57.78;96241.75;103877;1277;72416;-43
2023/10/20 13:29:20;;;;;;;10.30;5.20;;;;;;;17.58;57.74;96240.80;103735;1283;61272;-41
2023/10/20 13:31:47;;;;;;;7.30;4.90;;;;;;;17.56;57.71;96243.19;103596;1277;61364;-41
2023/10/20 13:34:14;;;;;;;8.20;5.10;;;;;;;17.53;57.67;96246.04;103743;1277;75535;-41
2023/10/20 13:36:40;;;;;;;8.30;4.70;;;;;;;17.52;57.61;96248.42;103658;1283;65810;-41
2023/10/20 13:39:07;;;;;;;6.00;4.80;;;;;;;17.49;57.58;96249.30;103616;1277;73439;-43
2023/10/20 13:41:43;;;;;;;6.40;4.30;;;;;;;17.47;57.57;96250.92;103659;1283;61898;-43
2023/10/20 13:44:12;;;;;;;8.70;5.00;;;;;;;17.46;57.51;96249.19;103680;1282;61281;-41
2023/10/20 13:46:39;;;;;;;7.00;4.90;;;;;;;17.44;57.55;96253.50;103679;1278;74774;-41
2023/10/20 13:49:09;;;;;;;7.40;4.60;;;;;;;17.42;57.53;96259.77;103717;1283;65769;-41
2023/10/20 13:51:35;;;;;;;5.90;4.60;;;;;;;17.41;57.54;96258.04;103809;1277;73753;-41
2023/10/20 13:54:02;;;;;;;10.60;5.00;;;;;;;17.39;57.47;96256.89;103860;1282;61286;-41
2023/10/20 13:56:29;;;;;;;8.70;5.00;;;;;;;17.37;57.42;96254.70;103953;1283;61393;-41
2023/10/20 13:58:56;;;;;;;7.70;4.90;;;;;;;17.36;57.43;96257.85;104262;1277;74750;-42
2023/10/20 14:01:22;;;;;;;8.90;4.80;;;;;;;17.34;57.44;96261.48;104183;1281;65315;-42
2023/10/20 14:03:49;;;;;;;7.40;4.50;;;;;;;17.33;57.42;96261.55;103815;1283;72477;-41
2023/10/20 14:06:16;;;;;;;7.20;4.50;;;;;;;17.31;57.47;96264.09;103978;1281;61272;-41
2023/10/20 14:08:45;;;;;;;8.00;4.70;;;;;;;17.30;57.43;96269.09;103870;1280;61901;-41
2023/10/20 14:11:12;;;;;;;6.20;4.50;;;;;;;17.30;57.38;96267.86;103946;1282;75469;-41
2023/10/20 14:13:41;;;;;;;6.40;4.70;;;;;;;17.28;57.37;96267.77;103923;1282;66859;-41
2023/10/20 14:16:08;;;;;;;5.60;4.60;;;;;;;17.27;57.38;96267.45;103812;1277;72644;-41
2023/10/20 14:18:35;;;;;;;5.50;4.20;;;;;;;17.26;57.28;96268.99;103732;1283;61290;-41
2023/10/20 14:21:02;;;;;;;5.00;4.00;;;;;;;17.25;57.24;96270.53;103745;1277;61381;-41
2023/10/20 14:23:31;;;;;;;8.70;4.60;;;;;;;17.24;57.34;96270.20;103685;1283;74456;-41
2023/10/20 14:25:58;;;;;;;5.80;4.30;;;;;;;17.22;57.27;96273.20;103664;1277;65475;-41
2023/10/20 14:28:31;;;;;;;7.10;4.40;;;;;;;17.22;57.31;96270.82;103745;1277;73257;-40
2023/10/20 14:30:59;;;;;;;6.00;4.60;;;;;;;17.21;57.25;96270.89;103920;1277;61301;-41
2023/10/20 14:33:25;;;;;;;5.30;4.20;;;;;;;17.20;57.27;96270.33;103949;1283;61413;-41
2023/10/20 14:35:56;;;;;;;7.00;4.40;;;;;;;17.19;57.19;96264.38;103757;1281;74437;-41
2023/10/20 14:38:24;;;;;;;8.10;4.40;;;;;;;17.19;57.18;96267.70;103717;1283;67516;-41
2023/10/20 14:41:04;;;;;;;6.40;4.60;;;;;;;17.18;57.24;96269.30;103702;1283;73568;-41
2023/10/20 14:43:35;;;;;;;4.30;3.60;;;;;;;17.17;57.23;96274.23;103752;1283;61192;-41
2023/10/20 14:46:04;;;;;;;6.30;4.20;;;;;;;17.16;57.15;96262.79;103729;1282;61358;-40
2023/10/20 14:48:32;;;;;;;5.80;4.70;;;;;;;17.15;57.13;96257.53;103693;1279;74415;-41
2023/10/20 14:50:59;;;;;;;6.30;4.20;;;;;;;17.14;57.17;96257.07;103694;1283;64770;-41
2023/10/20 14:53:26;;;;;;;5.30;4.40;;;;;;;17.14;57.13;96263.55;103670;1277;72416;-41
2023/10/20 14:55:53;;;;;;;6.30;4.30;;;;;;;17.14;57.17;96259.06;103731;1283;61299;-40
2023/10/20 14:58:20;;;;;;;7.10;4.70;;;;;;;17.14;57.10;96258.23;103919;1277;61390;-41
2023/10/20 15:00:47;;;;;;;5.20;4.20;;;;;;;17.13;57.00;96255.66;103812;1283;75151;-41
2023/10/20 15:03:15;;;;;;;5.80;4.50;;;;;;;17.12;57.09;96253.73;103804;1283;65081;-41
2023/10/20 15:05:42;;;;;;;5.00;4.00;;;;;;;17.12;57.05;96251.10;103728;1277;73765;-41
2023/10/20 15:08:08;;;;;;;4.80;4.10;;;;;;;17.11;56.97;96243.35;103669;1283;61276;-41
2023/10/20 15:10:36;;;;;;;6.40;4.20;;;;;;;17.11;57.00;96243.81;104032;1277;61354;-40
2023/10/20 15:13:03;;;;;;;5.80;4.00;;;;;;;17.10;56.96;96240.10;103784;1278;75122;-41
2023/10/20 15:15:34;;;;;;;5.40;4.30;;;;;;;17.09;57.00;96242.65;103828;1277;66207;-40
2023/10/20 15:18:03;;;;;;;5.80;4.50;;;;;;;17.08;56.97;96240.61;103921;1278;73548;-41
2023/10/20 15:20:30;;;;;;;5.80;4.60;;;;;;;17.08;56.89;96242.32;104149;1277;61300;-41
2023/10/20 15:22:57;;;;;;;6.40;4.30;;;;;;;17.07;56.96;96241.00;103826;1282;61356;-41
2023/10/20 15:25:40;;;;;;;4.60;4.00;;;;;;;17.07;56.92;96249.50;103847;1283;74343;-41
2023/10/20 15:28:07;;;;;;;5.20;3.90;;;;;;;17.06;56.94;96248.19;103786;1281;67099;-41
2023/10/20 15:30:34;;;;;;;5.30;3.90;;;;;;;17.06;56.88;96241.60;103911;1283;72469;-41
2023/10/20 15:33:00;;;;;;;5.30;4.20;;;;;;;17.05;56.90;96242.14;103849;1283;61294;-41
2023/10/20 15:35:28;;;;;;;6.20;4.10;;;;;;;17.04;56.89;96244.85;104220;1278;61664;-41
2023/10/20 15:37:55;;;;;;;5.50;4.00;;;;;;;17.04;56.88;96243.36;103921;1282;74568;-41
2023/10/20 15:40:23;;;;;;;4.70;4.20;;;;;;;17.03;56.88;96238.10;104305;1282;65999;-41
2023/10/20 15:42:51;;;;;;;7.10;4.50;;;;;;;17.03;56.89;96239.88;103775;1283;72404;-40
2023/10/20 15:45:18;;;;;;;5.20;3.90;;;;;;;17.02;56.87;96236.80;103688;1281;61251;-41
2023/10/20 15:47:48;;;;;;;4.90;4.00;;;;;;;17.02;56.83;96239.88;103786;1280;61288;-41
2023/10/20 15:50:15;;;;;;;4.90;4.00;;;;;;;17.02;56.85;96241.19;103667;1282;74648;-41
2023/10/20 15:52:42;;;;;;;4.80;3.80;;;;;;;17.01;56.85;96245.50;103736;1282;66153;-41
2023/10/20 15:55:08;;;;;;;4.60;4.10;;;;;;;17.01;56.79;96258.64;103772;1277;72451;-41
2023/10/20 15:57:36;;;;;;;5.30;4.00;;;;;;;17.00;56.76;96266.45;103804;1283;61285;-41
2023/10/20 16:00:04;;;;;;;4.80;4.00;;;;;;;17.00;56.76;96271.55;103676;1277;61276;-41
2023/10/20 16:02:38;;;;;;;6.20;4.40;;;;;;;17.00;56.73;96275.17;103655;1283;75405;-41
2023/10/20 16:05:05;;;;;;;4.20;3.80;;;;;;;17.00;56.71;96269.99;103750;1283;65937;-41
2023/10/20 16:07:32;;;;;;;6.60;4.10;;;;;;;16.98;56.72;96272.22;103804;1277;72604;-41
2023/10/20 16:09:58;;;;;;;5.40;4.10;;;;;;;16.98;56.65;96268.91;103768;1283;61285;-41
2023/10/20 16:12:25;;;;;;;4.10;3.60;;;;;;;16.98;56.69;96265.66;103876;1277;61384;-41
2023/10/20 16:14:52;;;;;;;4.80;3.80;;;;;;;16.98;56.71;96267.13;103726;1285;74658;-42
2023/10/20 16:17:22;;;;;;;5.00;3.70;;;;;;;16.97;56.69;96266.18;103704;1283;67408;-43
2023/10/20 16:19:49;;;;;;;4.70;4.20;;;;;;;16.96;56.69;96258.75;103619;1281;73713;-43
2023/10/20 16:22:15;;;;;;;8.00;3.80;;;;;;;16.95;56.62;96263.85;103641;1283;61256;-41
2023/10/20 16:24:42;;;;;;;5.30;3.90;;;;;;;16.95;56.64;96265.23;103671;1277;61290;-42
2023/10/20 16:27:08;;;;;;;5.60;3.90;;;;;;;16.95;56.66;96267.86;103756;1281;74679;-42
2023/10/20 16:29:35;;;;;;;4.40;4.00;;;;;;;16.95;56.66;96267.94;103668;1280;65406;-42
2023/10/20 16:32:03;;;;;;;4.20;3.60;;;;;;;16.94;56.66;96270.02;103647;1282;73015;-42
2023/10/20 16:34:29;;;;;;;4.80;3.90;;;;;;;16.94;56.64;96265.30;103929;1282;61221;-42
2023/10/20 16:36:56;;;;;;;4.70;3.90;;;;;;;16.93;56.61;96263.75;103967;1277;61255;-42
2023/10/20 16:39:23;;;;;;;4.50;3.60;;;;;;;16.93;56.63;96261.52;103715;1282;75003;-42
2023/10/20 16:41:50;;;;;;;4.60;3.70;;;;;;;16.93;56.59;96269.55;104010;1283;65794;-42
2023/10/20 16:44:17;;;;;;;4.40;3.70;;;;;;;16.92;56.60;96268.84;103776;1277;72392;-42
2023/10/20 16:46:43;;;;;;;4.00;3.40;;;;;;;16.92;56.53;96272.85;104160;1281;61256;-42
2023/10/20 16:49:11;;;;;;;5.80;4.00;;;;;;;16.91;56.57;96276.33;104268;1283;61251;-42
2023/10/20 16:51:43;;;;;;;5.00;3.70;;;;;;;16.91;56.62;96278.65;103896;1277;74440;-42
2023/10/20 16:54:11;;;;;;;4.20;3.60;;;;;;;16.91;56.57;96277.56;103963;1283;67187;-42
2023/10/20 16:56:38;;;;;;;5.70;3.90;;;;;;;16.91;56.60;96273.85;103873;1282;73739;-40
2023/10/20 16:59:05;;;;;;;5.20;4.00;;;;;;;16.90;56.56;96273.77;103780;1283;61301;-41
2023/10/20 17:01:32;;;;;;;4.40;3.70;;;;;;;16.90;56.55;96269.29;103812;1279;61453;-41
2023/10/20 17:03:59;;;;;;;4.00;3.60;;;;;;;16.89;56.55;96267.10;103693;1283;75474;-41